Time;durP1;ratioP1;P1;durP2;ratioP2;P2;SDS_P1;SDS_P2;PMS_P1;PMS_P2;Temp;Humidity;BMP_temperature;BMP_pressure;BME280_temperature;BME280_humidity;BME280_pressure;Samples;Min_cycle;Max_cycle;Signal;HPM_P1;HPM_P2
2021/10/11 00:00:06;;;;;;;22.80;14.77;;;2.10;99.90;;;;;;5092665;28;20470;-77
2021/10/11 00:02:31;;;;;;;32.28;14.35;;;2.00;99.90;;;;;;5085602;28;20378;-77
2021/10/11 00:04:58;;;;;;;26.80;13.77;;;2.00;99.90;;;;;;5092444;28;20038;-77
2021/10/11 00:07:24;;;;;;;27.75;13.70;;;1.90;99.90;;;;;;5091198;28;20027;-77
2021/10/11 00:09:50;;;;;;;27.75;13.40;;;1.90;99.90;;;;;;5092257;28;20020;-78
2021/10/11 00:12:19;;;;;;;22.55;12.70;;;1.90;99.90;;;;;;5095019;28;20024;-78
2021/10/11 00:14:44;;;;;;;23.05;13.40;;;1.80;99.90;;;;;;5094710;28;20085;-78
2021/10/11 00:17:10;;;;;;;23.35;12.45;;;1.80;99.90;;;;;;5082240;28;20032;-77
2021/10/11 00:19:37;;;;;;;23.65;11.32;;;1.80;99.90;;;;;;5074498;28;20040;-77
2021/10/11 00:22:03;;;;;;;24.30;11.90;;;1.70;99.90;;;;;;5081628;28;20035;-78
2021/10/11 00:24:29;;;;;;;19.35;11.43;;;1.70;99.90;;;;;;5081618;28;20119;-78
2021/10/11 00:26:54;;;;;;;20.10;11.48;;;1.70;99.90;;;;;;5074441;28;20151;-77
2021/10/11 00:29:20;;;;;;;22.00;11.38;;;1.70;99.90;;;;;;5075586;28;20029;-77
2021/10/11 00:31:46;;;;;;;25.67;13.52;;;1.70;99.90;;;;;;5075772;28;20031;-77
2021/10/11 00:34:11;;;;;;;28.10;16.67;;;1.60;99.90;;;;;;5091780;28;20097;-77
2021/10/11 00:36:37;;;;;;;31.80;14.55;;;1.60;99.90;;;;;;5095766;28;20039;-77
2021/10/11 00:39:03;;;;;;;27.60;14.00;;;1.50;99.90;;;;;;5111484;28;20026;-77
2021/10/11 00:41:31;;;;;;;26.10;12.93;;;1.40;99.90;;;;;;5095369;28;20448;-77
2021/10/11 00:44:00;;;;;;;27.13;12.30;;;1.40;99.90;;;;;;5095868;28;20024;-77
2021/10/11 00:46:26;;;;;;;19.48;12.25;;;1.40;99.90;;;;;;5110183;28;20016;-77
2021/10/11 00:48:52;;;;;;;22.92;12.57;;;1.40;99.90;;;;;;5075260;28;20036;-77
2021/10/11 00:51:18;;;;;;;19.52;11.93;;;1.40;99.90;;;;;;5073930;28;20059;-77
2021/10/11 00:53:43;;;;;;;22.45;12.38;;;1.40;99.90;;;;;;5075044;28;20060;-77
2021/10/11 00:56:09;;;;;;;22.35;12.75;;;1.30;99.90;;;;;;5075156;28;20068;-77
2021/10/11 00:58:35;;;;;;;26.85;13.05;;;1.40;99.90;;;;;;5073667;28;20051;-77
2021/10/11 01:01:00;;;;;;;24.35;14.02;;;1.30;99.90;;;;;;5075106;28;20437;-77
2021/10/11 01:03:26;;;;;;;29.58;14.65;;;1.30;99.90;;;;;;5074905;28;20032;-77
2021/10/11 01:05:53;;;;;;;28.65;13.32;;;1.30;99.90;;;;;;5074554;28;20070;-77
2021/10/11 01:08:19;;;;;;;25.25;13.23;;;1.30;99.90;;;;;;5077205;28;20021;-77
2021/10/11 01:10:48;;;;;;;26.65;13.32;;;1.20;99.90;;;;;;5088885;28;20020;-77
2021/10/11 01:13:15;;;;;;;26.00;13.75;;;1.10;99.90;;;;;;5073569;28;20116;-77
2021/10/11 01:15:41;;;;;;;27.00;15.45;;;1.10;99.90;;;;;;5073430;28;20038;-77
2021/10/11 01:18:07;;;;;;;30.85;13.88;;;1.10;99.90;;;;;;5073749;28;20025;-77
2021/10/11 01:20:32;;;;;;;27.02;14.55;;;1.00;99.90;;;;;;5073999;28;20036;-77
2021/10/11 01:22:58;;;;;;;26.98;14.73;;;1.00;99.90;;;;;;5074649;28;20020;-77
2021/10/11 01:25:24;;;;;;;33.75;17.13;;;1.00;99.90;;;;;;5073234;28;20021;-77
2021/10/11 01:27:50;;;;;;;35.03;17.45;;;1.00;99.90;;;;;;5073247;28;20029;-77
2021/10/11 01:30:16;;;;;;;42.75;20.10;;;0.90;99.90;;;;;;5084249;28;20537;-77
2021/10/11 01:32:46;;;;;;;37.55;16.45;;;0.90;99.90;;;;;;5073182;28;20098;-76
2021/10/11 01:35:13;;;;;;;32.17;17.48;;;0.80;99.90;;;;;;5072947;28;20106;-77
2021/10/11 01:37:39;;;;;;;33.97;19.08;;;0.80;99.90;;;;;;5073298;28;20190;-77
2021/10/11 01:40:07;;;;;;;35.85;18.25;;;0.80;99.90;;;;;;5073051;28;20021;-77
2021/10/11 01:42:33;;;;;;;35.95;16.75;;;0.90;99.90;;;;;;5075276;28;20537;-77
2021/10/11 01:45:00;;;;;;;38.15;16.45;;;0.80;99.90;;;;;;5093130;28;20027;-77
2021/10/11 01:47:27;;;;;;;31.90;14.95;;;0.80;99.90;;;;;;5087981;28;20067;-77
2021/10/11 01:49:53;;;;;;;28.80;15.45;;;0.80;99.90;;;;;;5077493;28;20020;-77
2021/10/11 01:52:19;;;;;;;28.77;14.00;;;0.70;99.90;;;;;;5093072;28;20089;-77
2021/10/11 01:54:45;;;;;;;26.73;14.20;;;0.70;99.90;;;;;;5092793;28;20123;-77
2021/10/11 01:57:12;;;;;;;24.30;14.43;;;0.70;99.90;;;;;;5092984;28;20016;-77
2021/10/11 01:59:38;;;;;;;19.73;12.70;;;0.70;99.90;;;;;;5094077;28;20393;-77
2021/10/11 02:02:04;;;;;;;21.73;12.70;;;0.70;99.90;;;;;;5094187;28;20028;-77
2021/10/11 02:04:30;;;;;;;23.70;12.50;;;0.70;99.90;;;;;;5078908;28;20474;-77
2021/10/11 02:06:56;;;;;;;29.67;13.30;;;0.70;99.90;;;;;;5072522;28;20462;-77
2021/10/11 02:09:22;;;;;;;23.73;12.32;;;0.60;99.90;;;;;;5073669;28;20538;-77
2021/10/11 02:11:48;;;;;;;22.88;12.18;;;0.60;99.90;;;;;;5073609;28;20103;-77
2021/10/11 02:14:13;;;;;;;23.02;12.25;;;0.60;99.90;;;;;;5072201;28;20028;-77
2021/10/11 02:16:39;;;;;;;24.25;13.40;;;0.60;99.90;;;;;;5072303;28;20486;-77
2021/10/11 02:19:05;;;;;;;31.30;16.48;;;0.60;99.90;;;;;;5092843;28;20028;-77
2021/10/11 02:21:30;;;;;;;30.23;14.85;;;0.50;99.90;;;;;;5089917;28;20025;-77
2021/10/11 02:23:56;;;;;;;26.25;15.43;;;0.50;99.90;;;;;;5072202;28;20020;-77
2021/10/11 02:26:23;;;;;;;25.08;13.80;;;0.40;99.90;;;;;;5072200;28;20021;-77
2021/10/11 02:28:50;;;;;;;25.30;14.25;;;0.40;99.90;;;;;;5071997;28;20552;-77
2021/10/11 02:31:15;;;;;;;23.15;13.38;;;0.40;99.90;;;;;;5073361;28;20032;-77
2021/10/11 02:33:41;;;;;;;20.63;12.85;;;0.40;99.90;;;;;;5072364;28;20029;-76
2021/10/11 02:36:07;;;;;;;26.35;13.82;;;0.40;99.90;;;;;;5073301;28;20048;-77
2021/10/11 02:38:32;;;;;;;26.83;14.27;;;0.40;99.90;;;;;;5073141;28;20111;-77
2021/10/11 02:40:58;;;;;;;23.60;13.57;;;0.40;99.90;;;;;;5071945;28;20056;-77
2021/10/11 02:43:24;;;;;;;27.80;13.90;;;0.30;99.90;;;;;;5073106;28;20033;-77
2021/10/11 02:45:49;;;;;;;19.88;13.15;;;0.30;99.90;;;;;;5071822;28;20432;-77
2021/10/11 02:48:15;;;;;;;25.55;14.88;;;0.30;99.90;;;;;;5074036;28;20036;-77
2021/10/11 02:50:41;;;;;;;21.63;13.23;;;0.20;99.90;;;;;;5071646;28;20029;-77
2021/10/11 02:53:06;;;;;;;27.88;15.88;;;0.20;99.90;;;;;;5073296;28;20052;-77
2021/10/11 02:55:32;;;;;;;32.40;17.10;;;0.20;99.90;;;;;;5072229;28;20081;-77
2021/10/11 02:57:58;;;;;;;36.13;17.33;;;0.20;99.90;;;;;;5088421;28;20039;-77
2021/10/11 03:00:23;;;;;;;28.20;16.58;;;0.20;99.90;;;;;;5072949;28;20020;-77
2021/10/11 03:02:49;;;;;;;25.00;14.05;;;0.20;99.90;;;;;;5071472;28;20060;-79
2021/10/11 03:05:14;;;;;;;23.45;13.27;;;0.10;99.90;;;;;;5072862;28;20031;-77
2021/10/11 03:07:40;;;;;;;23.45;11.80;;;0.10;99.90;;;;;;5071543;28;20016;-77
2021/10/11 03:10:06;;;;;;;19.10;11.90;;;0.10;99.90;;;;;;5071608;28;20020;-77
2021/10/11 03:12:33;;;;;;;19.52;11.43;;;0.00;99.90;;;;;;5071341;28;20020;-77
2021/10/11 03:14:59;;;;;;;22.55;11.77;;;0.00;99.90;;;;;;5082500;28;20157;-77
2021/10/11 03:17:25;;;;;;;23.33;14.80;;;-0.10;99.90;;;;;;5091012;28;20040;-77
2021/10/11 03:19:50;;;;;;;26.17;13.32;;;-0.10;99.90;;;;;;5091654;28;20032;-77
2021/10/11 03:22:16;;;;;;;58.65;21.95;;;-0.10;99.90;;;;;;5082458;28;20100;-78
2021/10/11 03:24:42;;;;;;;59.58;24.60;;;-0.20;99.90;;;;;;5078842;28;20032;-77
2021/10/11 03:27:07;;;;;;;56.75;23.55;;;-0.20;99.90;;;;;;5108301;28;20039;-77
2021/10/11 03:29:33;;;;;;;46.67;20.50;;;-0.20;99.90;;;;;;5092811;28;20045;-77
2021/10/11 03:31:58;;;;;;;35.38;18.38;;;-0.20;99.90;;;;;;5092863;28;20020;-77
2021/10/11 03:34:24;;;;;;;33.13;15.88;;;-0.20;99.90;;;;;;5086352;28;20020;-78
2021/10/11 03:36:49;;;;;;;38.67;17.48;;;-0.20;99.90;;;;;;5071301;28;20108;-77
2021/10/11 03:39:15;;;;;;;38.17;17.67;;;-0.20;99.90;;;;;;5071257;28;20017;-78
2021/10/11 03:41:41;;;;;;;35.10;17.10;;;-0.20;99.90;;;;;;5071285;28;20519;-77
2021/10/11 03:44:06;;;;;;;40.70;18.60;;;-0.20;99.90;;;;;;5073984;28;20016;-77
2021/10/11 03:46:33;;;;;;;30.38;17.05;;;-0.20;99.90;;;;;;5075310;28;20063;-77
2021/10/11 03:49:00;;;;;;;37.42;18.17;;;-0.20;99.90;;;;;;5079996;28;20048;-77
2021/10/11 03:51:25;;;;;;;36.63;17.70;;;-0.20;99.90;;;;;;5076691;28;20020;-77
2021/10/11 03:53:51;;;;;;;33.53;17.25;;;-0.20;99.90;;;;;;5112272;28;20035;-77
2021/10/11 03:56:17;;;;;;;30.30;16.20;;;-0.20;99.90;;;;;;5112274;28;20116;-77
2021/10/11 03:58:42;;;;;;;28.85;15.98;;;-0.20;99.90;;;;;;5112313;28;20032;-77
2021/10/11 04:01:08;;;;;;;44.92;21.63;;;-0.20;99.90;;;;;;5112241;28;20035;-77
2021/10/11 04:03:34;;;;;;;39.08;20.25;;;-0.20;99.90;;;;;;5111789;28;20035;-77
2021/10/11 04:06:00;;;;;;;47.65;23.88;;;-0.20;99.90;;;;;;5111745;28;20439;-77
2021/10/11 04:08:37;;;;;;;43.00;21.23;;;-0.30;99.90;;;;;;5096316;28;20385;-77
2021/10/11 04:13:35;;;;;;;39.15;18.10;;;-0.30;99.90;;;;;;5096569;28;20119;-77
2021/10/11 04:16:01;;;;;;;40.58;18.77;;;-0.30;99.90;;;;;;5078715;28;20119;-77
2021/10/11 04:18:27;;;;;;;38.38;19.33;;;-0.30;99.90;;;;;;5079658;28;20028;-77
2021/10/11 04:20:52;;;;;;;46.85;21.80;;;-0.30;99.90;;;;;;5082223;28;20028;-78
2021/10/11 04:23:18;;;;;;;45.00;22.40;;;-0.40;99.90;;;;;;5080218;28;20081;-78
2021/10/11 04:25:44;;;;;;;54.83;25.70;;;-0.40;99.90;;;;;;5075740;28;20021;-78
2021/10/11 04:28:11;;;;;;;56.45;28.63;;;-0.50;99.90;;;;;;5075705;28;20024;-78
2021/10/11 04:30:37;;;;;;;56.80;29.35;;;-0.50;99.90;;;;;;5074339;28;20017;-78
2021/10/11 04:33:03;;;;;;;63.42;28.83;;;-0.50;99.90;;;;;;5075674;28;20074;-79
2021/10/11 04:35:29;;;;;;;62.65;28.02;;;-0.50;99.90;;;;;;5074482;28;20127;-78
2021/10/11 04:37:54;;;;;;;48.47;26.73;;;-0.50;99.90;;;;;;5075496;28;20021;-79
2021/10/11 04:40:21;;;;;;;48.28;22.58;;;-0.50;99.90;;;;;;5081301;28;20050;-78
2021/10/11 04:42:46;;;;;;;50.08;22.77;;;-0.40;99.90;;;;;;5090999;28;20031;-78
2021/10/11 04:45:12;;;;;;;47.28;22.55;;;-0.50;99.90;;;;;;5083799;28;20389;-78
2021/10/11 04:47:39;;;;;;;43.30;19.70;;;-0.50;99.90;;;;;;5081983;28;20027;-79
2021/10/11 04:50:05;;;;;;;36.88;17.90;;;-0.50;99.90;;;;;;5083442;28;20016;-79
2021/10/11 04:52:30;;;;;;;38.35;18.75;;;-0.50;99.90;;;;;;5083263;28;20078;-79
2021/10/11 04:54:56;;;;;;;37.65;18.17;;;-0.50;99.90;;;;;;5081956;28;20128;-79
2021/10/11 04:57:22;;;;;;;41.13;20.40;;;-0.50;99.90;;;;;;5083163;28;20028;-78
2021/10/11 04:59:47;;;;;;;43.45;21.17;;;-0.50;99.90;;;;;;5077224;28;20032;-78
2021/10/11 05:02:13;;;;;;;49.25;19.80;;;-0.50;99.90;;;;;;5075010;28;20024;-79
2021/10/11 05:04:39;;;;;;;31.83;15.93;;;-0.50;99.90;;;;;;5074672;28;20035;-79
2021/10/11 05:07:04;;;;;;;36.33;18.75;;;-0.40;99.90;;;;;;5073436;28;20040;-79
2021/10/11 05:09:30;;;;;;;47.83;20.92;;;-0.50;99.90;;;;;;5073456;28;20017;-79
2021/10/11 05:11:56;;;;;;;52.00;26.75;;;-0.50;99.90;;;;;;5074207;28;20034;-78
2021/10/11 05:14:21;;;;;;;52.15;23.08;;;-0.50;99.90;;;;;;5072606;28;20021;-78
2021/10/11 05:16:47;;;;;;;48.08;24.05;;;-0.50;99.90;;;;;;5090776;28;20374;-78
2021/10/11 05:19:14;;;;;;;40.80;20.00;;;-0.50;99.90;;;;;;5083399;28;20024;-79
2021/10/11 05:21:40;;;;;;;48.92;23.27;;;-0.50;99.90;;;;;;5073360;28;20032;-78
2021/10/11 05:24:05;;;;;;;42.67;22.27;;;-0.60;99.90;;;;;;5089409;28;20028;-79
2021/10/11 05:26:31;;;;;;;44.85;20.42;;;-0.60;99.90;;;;;;5090240;28;20035;-79
2021/10/11 05:28:58;;;;;;;46.28;21.77;;;-0.60;99.90;;;;;;5093253;28;20107;-80
2021/10/11 05:31:24;;;;;;;51.38;24.50;;;-0.60;99.90;;;;;;5093437;28;20016;-78
2021/10/11 05:33:50;;;;;;;75.93;36.05;;;-0.50;99.90;;;;;;5091389;28;20032;-79
2021/10/11 05:36:16;;;;;;;104.20;45.42;;;-0.50;99.90;;;;;;5082967;28;20036;-78
2021/10/11 05:38:42;;;;;;;76.35;35.97;;;-0.60;99.90;;;;;;5086340;28;20048;-79
2021/10/11 05:41:07;;;;;;;68.65;35.00;;;-0.60;99.90;;;;;;5072693;28;20116;-79
2021/10/11 05:43:33;;;;;;;63.15;31.13;;;-0.50;99.90;;;;;;5087428;28;20466;-79
2021/10/11 05:45:59;;;;;;;56.03;29.10;;;-0.50;99.90;;;;;;5075921;28;20048;-79
2021/10/11 05:48:24;;;;;;;61.75;33.10;;;-0.40;99.90;;;;;;5076696;28;20027;-78
2021/10/11 05:50:50;;;;;;;60.33;31.25;;;-0.40;99.90;;;;;;5084838;28;20071;-78
2021/10/11 05:53:15;;;;;;;62.28;29.55;;;-0.30;99.90;;;;;;5088864;28;20059;-78
2021/10/11 05:55:41;;;;;;;78.38;37.65;;;-0.30;99.90;;;;;;5085680;28;20033;-79
2021/10/11 05:58:07;;;;;;;71.53;35.22;;;-0.20;99.90;;;;;;5072157;28;20486;-78
2021/10/11 06:00:32;;;;;;;77.28;33.85;;;-0.10;99.90;;;;;;5072682;28;20016;-78
2021/10/11 06:02:58;;;;;;;112.60;52.42;;;0.00;99.90;;;;;;5073859;28;20485;-78
2021/10/11 06:05:23;;;;;;;136.35;63.50;;;0.10;99.90;;;;;;5071496;28;20119;-78
2021/10/11 06:07:49;;;;;;;129.27;56.95;;;0.20;99.90;;;;;;5079604;28;20050;-79
2021/10/11 06:10:15;;;;;;;101.63;47.08;;;0.30;99.90;;;;;;5082386;28;20020;-79
2021/10/11 06:12:42;;;;;;;88.22;43.60;;;0.40;99.90;;;;;;5082741;28;20559;-78
2021/10/11 06:15:08;;;;;;;76.55;36.72;;;0.60;99.90;;;;;;5076436;28;20171;-78
2021/10/11 06:17:34;;;;;;;75.18;37.50;;;0.80;99.90;;;;;;5083178;28;20533;-79
2021/10/11 06:20:00;;;;;;;65.75;30.08;;;0.90;99.90;;;;;;5083265;28;20017;-78
2021/10/11 06:22:26;;;;;;;76.53;35.22;;;1.10;99.90;;;;;;5081047;28;20016;-78
2021/10/11 06:24:52;;;;;;;129.05;47.80;;;1.30;99.90;;;;;;5083420;28;20209;-79
2021/10/11 06:27:17;;;;;;;220.38;90.38;;;1.40;99.90;;;;;;5083614;28;20021;-78
2021/10/11 06:29:43;;;;;;;205.57;87.78;;;1.50;99.90;;;;;;5081008;28;20566;-78
2021/10/11 06:32:09;;;;;;;83.88;41.03;;;1.60;99.90;;;;;;5084222;28;20028;-79
2021/10/11 06:34:34;;;;;;;55.40;28.33;;;1.80;99.90;;;;;;5081957;28;20108;-78
2021/10/11 06:37:00;;;;;;;42.90;23.77;;;2.00;99.90;;;;;;5085490;28;20495;-79
2021/10/11 06:39:25;;;;;;;54.50;25.20;;;2.10;99.90;;;;;;5083202;28;20023;-78
2021/10/11 06:41:51;;;;;;;44.22;23.80;;;2.30;99.90;;;;;;5083106;28;20031;-78
2021/10/11 06:44:17;;;;;;;45.65;24.83;;;2.50;99.90;;;;;;5082474;28;20029;-78
2021/10/11 06:46:42;;;;;;;54.72;24.75;;;2.70;99.90;;;;;;5080337;28;20481;-78
2021/10/11 06:49:08;;;;;;;56.03;27.65;;;2.80;99.90;;;;;;5078565;28;20040;-78
2021/10/11 06:51:34;;;;;;;60.97;29.90;;;2.90;99.90;;;;;;5082030;28;20388;-78
2021/10/11 06:53:59;;;;;;;66.68;36.33;;;3.00;99.90;;;;;;5081068;28;20455;-78
2021/10/11 06:56:25;;;;;;;62.65;32.85;;;3.10;99.90;;;;;;5078525;28;20033;-79
2021/10/11 06:58:50;;;;;;;76.10;36.05;;;3.20;99.90;;;;;;5080707;28;20436;-78
2021/10/11 07:01:16;;;;;;;77.15;36.90;;;3.30;99.90;;;;;;5076966;28;20021;-78
2021/10/11 07:03:42;;;;;;;76.80;38.65;;;3.40;99.90;;;;;;5081690;28;20020;-78
2021/10/11 07:06:14;;;;;;;70.65;36.40;;;3.30;99.90;;;;;;5074332;28;20546;-78
2021/10/11 07:08:40;;;;;;;76.07;39.47;;;3.40;99.90;;;;;;5074025;28;20115;-78
2021/10/11 07:11:08;;;;;;;75.25;40.38;;;3.50;99.90;;;;;;5074533;28;20460;-79
2021/10/11 07:13:35;;;;;;;83.07;44.85;;;3.60;99.90;;;;;;5070544;28;20481;-78
2021/10/11 07:16:04;;;;;;;86.53;45.72;;;3.80;99.90;;;;;;5070273;28;20040;-78
2021/10/11 07:18:31;;;;;;;79.05;43.60;;;3.80;99.90;;;;;;5077383;28;20020;-78
2021/10/11 07:20:56;;;;;;;75.63;42.25;;;4.00;99.90;;;;;;5091603;28;20020;-78
2021/10/11 07:23:22;;;;;;;91.68;50.15;;;4.20;99.90;;;;;;5080118;28;20370;-78
2021/10/11 07:25:48;;;;;;;84.68;44.75;;;4.30;99.90;;;;;;5080241;28;20023;-78
2021/10/11 07:28:13;;;;;;;78.45;41.05;;;4.50;99.90;;;;;;5081254;28;20020;-78
2021/10/11 07:30:39;;;;;;;88.55;41.83;;;4.50;99.90;;;;;;5074409;28;20024;-78
2021/10/11 07:33:07;;;;;;;78.70;42.00;;;4.60;99.90;;;;;;5087729;28;20081;-78
2021/10/11 07:35:33;;;;;;;75.03;40.83;;;4.70;99.90;;;;;;5092400;28;20036;-78
2021/10/11 07:37:59;;;;;;;78.00;42.95;;;5.00;99.90;;;;;;5089450;28;20027;-78
2021/10/11 07:40:25;;;;;;;90.03;41.95;;;5.10;99.90;;;;;;5072476;28;20017;-78
2021/10/11 07:42:51;;;;;;;75.07;42.08;;;5.20;99.90;;;;;;5071216;28;20516;-79
2021/10/11 07:45:17;;;;;;;82.43;43.15;;;5.30;99.90;;;;;;5071220;28;20029;-78
2021/10/11 07:47:44;;;;;;;82.25;44.40;;;5.50;99.90;;;;;;5072518;28;20082;-79
2021/10/11 07:50:10;;;;;;;87.18;48.13;;;5.70;99.90;;;;;;5069748;28;20032;-78
2021/10/11 07:52:36;;;;;;;90.78;48.50;;;5.80;99.90;;;;;;5074101;28;20026;-78
2021/10/11 07:55:02;;;;;;;92.95;47.90;;;5.90;99.90;;;;;;5092469;28;20477;-78
2021/10/11 07:57:33;;;;;;;93.80;50.70;;;6.00;99.90;;;;;;5092538;28;20504;-79
2021/10/11 08:00:00;;;;;;;85.72;45.88;;;6.20;99.90;;;;;;5075581;28;20028;-79
2021/10/11 08:02:25;;;;;;;87.30;47.75;;;6.30;99.90;;;;;;5071513;28;20020;-79
2021/10/11 08:04:51;;;;;;;81.07;41.45;;;6.40;99.90;;;;;;5072125;28;20024;-79
2021/10/11 08:07:17;;;;;;;86.30;42.47;;;6.60;99.90;;;;;;5086697;28;20021;-79
2021/10/11 08:09:42;;;;;;;81.63;42.83;;;6.60;99.90;;;;;;5085887;28;20028;-79
2021/10/11 08:12:09;;;;;;;75.10;40.47;;;6.70;99.20;;;;;;5070657;28;20020;-79
2021/10/11 08:14:35;;;;;;;70.30;37.25;;;6.80;95.70;;;;;;5071270;28;20482;-79
2021/10/11 08:17:01;;;;;;;72.90;38.88;;;6.90;93.50;;;;;;5070934;28;20371;-79
2021/10/11 08:19:27;;;;;;;58.40;29.40;;;7.00;97.50;;;;;;5071840;28;20027;-79
2021/10/11 08:21:53;;;;;;;62.40;30.23;;;7.10;87.40;;;;;;5069466;28;20032;-79
2021/10/11 08:24:19;;;;;;;59.65;30.23;;;7.20;85.30;;;;;;5081302;28;20028;-80
2021/10/11 08:26:45;;;;;;;56.13;27.23;;;7.30;84.30;;;;;;5068718;28;20401;-80
2021/10/11 08:29:10;;;;;;;61.88;32.70;;;7.50;84.50;;;;;;5077412;28;20102;-80
2021/10/11 08:31:37;;;;;;;47.15;26.23;;;7.60;83.80;;;;;;5091478;28;20107;-80
2021/10/11 08:34:03;;;;;;;57.55;26.08;;;7.80;82.90;;;;;;5081564;28;20028;-80
2021/10/11 08:36:29;;;;;;;47.05;26.05;;;7.90;84.20;;;;;;5072406;28;20029;-80
2021/10/11 08:38:55;;;;;;;47.10;25.75;;;8.10;82.90;;;;;;5074030;28;20020;-80
2021/10/11 08:41:21;;;;;;;46.83;25.65;;;8.20;80.80;;;;;;5078451;28;20024;-80
2021/10/11 08:43:46;;;;;;;48.42;24.58;;;8.30;79.60;;;;;;5095622;28;20023;-80
2021/10/11 08:46:13;;;;;;;48.97;25.05;;;8.50;79.50;;;;;;5091427;28;20557;-80
2021/10/11 08:48:38;;;;;;;41.50;22.58;;;8.70;75.40;;;;;;5075422;28;20033;-80
2021/10/11 08:51:06;;;;;;;39.40;21.80;;;8.80;70.80;;;;;;5073627;28;20016;-80
2021/10/11 08:53:32;;;;;;;41.50;21.13;;;8.80;67.90;;;;;;5075938;28;20051;-80
2021/10/11 08:55:58;;;;;;;43.35;21.15;;;8.70;67.40;;;;;;5075187;28;20390;-80
2021/10/11 08:58:23;;;;;;;42.38;21.75;;;8.70;67.40;;;;;;5074006;28;20032;-80
2021/10/11 09:00:49;;;;;;;33.40;17.70;;;8.80;66.40;;;;;;5075138;28;20081;-80
2021/10/11 09:03:19;;;;;;;31.23;17.48;;;8.90;63.50;;;;;;5076143;28;20044;-80
2021/10/11 09:05:53;;;;;;;33.42;18.58;;;9.00;63.80;;;;;;5073927;28;20432;-81
2021/10/11 09:08:19;;;;;;;34.97;18.08;;;9.00;64.00;;;;;;5076181;28;20107;-80
2021/10/11 09:10:49;;;;;;;32.55;18.40;;;9.10;64.20;;;;;;5074970;28;20048;-80
2021/10/11 09:13:15;;;;;;;34.42;17.58;;;9.30;61.80;;;;;;5073694;28;20119;-80
2021/10/11 09:15:41;;;;;;;32.50;16.08;;;9.50;61.70;;;;;;5083861;28;20504;-80
2021/10/11 09:18:06;;;;;;;44.03;24.45;;;9.70;59.20;;;;;;5093147;28;20048;-80
2021/10/11 09:20:38;;;;;;;60.33;29.77;;;9.80;66.10;;;;;;5092265;28;20093;-80
2021/10/11 09:23:04;;;;;;;54.90;28.33;;;9.90;68.30;;;;;;5084308;28;20139;-80
2021/10/11 09:25:38;;;;;;;56.75;28.45;;;10.00;71.50;;;;;;5082673;28;20597;-80
2021/10/11 09:28:06;;;;;;;46.70;26.83;;;10.00;72.20;;;;;;5094878;28;20043;-81
2021/10/11 09:30:35;;;;;;;56.83;30.02;;;10.10;72.20;;;;;;5108774;28;20485;-80
2021/10/11 09:33:15;;;;;;;53.80;30.38;;;10.10;70.40;;;;;;5110734;28;20548;-80
2021/10/11 09:35:43;;;;;;;57.85;31.95;;;10.10;71.60;;;;;;5093939;28;20389;-79
2021/10/11 09:38:27;;;;;;;59.17;32.63;;;10.00;73.70;;;;;;5094287;28;20020;-78
2021/10/11 09:40:58;;;;;;;53.40;29.10;;;9.90;73.80;;;;;;5092918;28;20032;-78
2021/10/11 09:43:27;;;;;;;62.47;29.88;;;10.10;75.40;;;;;;5092510;28;20016;-79
2021/10/11 09:45:54;;;;;;;56.45;30.25;;;10.00;72.70;;;;;;5091104;28;20020;-79
2021/10/11 09:48:21;;;;;;;51.53;30.30;;;10.10;74.10;;;;;;5074404;28;20032;-80
2021/10/11 09:50:47;;;;;;;50.78;30.38;;;10.10;73.10;;;;;;5073981;28;20360;-79
2021/10/11 09:53:15;;;;;;;64.07;32.33;;;10.20;75.00;;;;;;5080886;28;20031;-79
2021/10/11 09:55:41;;;;;;;51.60;29.08;;;10.20;76.10;;;;;;5092809;28;20036;-78
2021/10/11 09:58:11;;;;;;;50.90;27.98;;;10.20;73.30;;;;;;5092559;28;20500;-79
2021/10/11 10:00:43;;;;;;;53.50;28.48;;;10.20;72.10;;;;;;5107215;28;20012;-79
2021/10/11 10:03:13;;;;;;;51.42;26.58;;;10.30;72.00;;;;;;5071926;28;20021;-79
2021/10/11 10:05:49;;;;;;;50.92;26.08;;;10.30;71.10;;;;;;5071991;28;20019;-79
2021/10/11 10:08:21;;;;;;;48.85;26.40;;;10.20;69.50;;;;;;5071823;28;20464;-78
2021/10/11 10:10:52;;;;;;;49.97;27.85;;;10.30;70.40;;;;;;5071735;28;20052;-79
2021/10/11 10:13:20;;;;;;;42.88;24.80;;;10.30;69.80;;;;;;5073746;28;20016;-79
2021/10/11 10:15:47;;;;;;;52.20;26.13;;;10.20;68.50;;;;;;5077864;28;20438;-78
2021/10/11 10:18:15;;;;;;;53.63;24.63;;;10.20;69.60;;;;;;5075279;28;20028;-78
2021/10/11 10:20:58;;;;;;;42.65;24.20;;;10.10;69.20;;;;;;5076258;28;20107;-78
2021/10/11 10:23:28;;;;;;;46.22;24.83;;;9.90;68.30;;;;;;5087565;28;20115;-78
2021/10/11 10:26:02;;;;;;;49.42;26.45;;;9.90;69.00;;;;;;5082805;28;20028;-78
2021/10/11 10:28:46;;;;;;;59.88;28.20;;;9.80;69.70;;;;;;5092373;28;20092;-79
2021/10/11 10:31:36;;;;;;;53.33;28.25;;;9.70;70.00;;;;;;5084458;28;20020;-79
2021/10/11 10:34:21;;;;;;;56.90;30.42;;;9.60;70.90;;;;;;5073311;28;20500;-79
2021/10/11 10:37:00;;;;;;;58.63;30.23;;;9.70;72.70;;;;;;5092914;28;20024;-79
2021/10/11 10:39:44;;;;;;;63.47;34.10;;;9.70;73.00;;;;;;5074280;28;20074;-78
2021/10/11 10:42:26;;;;;;;69.95;36.53;;;9.70;73.10;;;;;;5073630;28;20029;-78
2021/10/11 10:44:52;;;;;;;79.13;40.67;;;9.80;73.90;;;;;;5071728;28;20021;-78
2021/10/11 10:47:32;;;;;;;73.85;36.80;;;9.80;73.80;;;;;;5077759;28;20111;-79
2021/10/11 10:49:58;;;;;;;70.70;36.45;;;9.80;72.00;;;;;;5072407;28;20032;-78
2021/10/11 10:52:23;;;;;;;69.50;35.85;;;9.90;72.90;;;;;;5075196;28;21236;-78
2021/10/11 10:54:58;;;;;;;76.90;34.40;;;10.00;73.20;;;;;;5080660;28;20037;-78
2021/10/11 10:57:26;;;;;;;61.10;34.28;;;10.00;69.60;;;;;;5079609;28;20031;-78
2021/10/11 10:59:57;;;;;;;63.70;34.53;;;10.20;69.80;;;;;;5088101;28;20473;-79
2021/10/11 11:02:23;;;;;;;59.85;32.55;;;10.20;70.00;;;;;;5075727;28;20108;-79
2021/10/11 11:04:58;;;;;;;57.95;31.50;;;10.30;69.70;;;;;;5071577;28;20549;-78
2021/10/11 11:07:38;;;;;;;58.95;33.65;;;10.30;68.20;;;;;;5073936;28;20017;-78
2021/10/11 11:10:11;;;;;;;61.75;33.53;;;10.40;67.90;;;;;;5073971;28;20016;-78
2021/10/11 11:12:38;;;;;;;62.63;35.03;;;10.50;69.40;;;;;;5071639;28;20531;-78
2021/10/11 11:15:10;;;;;;;57.63;32.28;;;10.60;69.70;;;;;;5072990;28;20025;-78
2021/10/11 11:17:38;;;;;;;59.78;34.15;;;10.70;68.90;;;;;;5072884;28;20103;-78
2021/10/11 11:20:15;;;;;;;61.80;33.38;;;10.80;67.70;;;;;;5081637;28;20028;-78
2021/10/11 11:22:42;;;;;;;57.95;31.02;;;11.00;67.50;;;;;;5073045;28;20089;-78
2021/10/11 11:25:09;;;;;;;58.38;33.13;;;11.00;65.00;;;;;;5072774;28;20123;-78
2021/10/11 11:27:40;;;;;;;56.75;29.88;;;11.10;65.10;;;;;;5072692;28;20051;-78
2021/10/11 11:30:16;;;;;;;56.20;29.88;;;11.20;64.00;;;;;;5072387;28;20010;-78
2021/10/11 11:32:47;;;;;;;50.50;28.80;;;11.20;63.30;;;;;;5072566;28;20367;-78
2021/10/11 11:35:35;;;;;;;40.08;23.17;;;11.40;63.80;;;;;;5073606;28;20060;-79
2021/10/11 11:38:05;;;;;;;38.45;21.23;;;11.40;59.90;;;;;;5077343;28;20032;-79
2021/10/11 11:40:42;;;;;;;40.47;22.02;;;11.40;59.20;;;;;;5078997;28;20027;-78
2021/10/11 11:43:09;;;;;;;40.50;21.92;;;11.40;58.60;;;;;;5072436;28;20020;-78
2021/10/11 11:45:49;;;;;;;46.60;22.10;;;11.50;60.20;;;;;;5073520;28;20108;-78
2021/10/11 11:48:27;;;;;;;45.55;21.50;;;11.60;58.20;;;;;;5072269;28;20039;-78
2021/10/11 11:50:57;;;;;;;34.22;20.65;;;11.70;57.80;;;;;;5090253;28;20381;-78
2021/10/11 11:53:24;;;;;;;42.28;21.60;;;11.70;56.80;;;;;;5080702;28;20032;-78
2021/10/11 11:55:52;;;;;;;34.45;19.25;;;11.80;57.10;;;;;;5073352;28;20064;-78
2021/10/11 11:58:38;;;;;;;33.03;19.88;;;11.80;56.00;;;;;;5072144;28;20028;-78
2021/10/11 12:01:13;;;;;;;32.63;19.65;;;11.70;55.10;;;;;;5072557;28;20129;-78
2021/10/11 12:03:48;;;;;;;37.17;21.23;;;11.80;55.70;;;;;;5071339;28;20466;-78
2021/10/11 12:06:14;;;;;;;37.65;19.80;;;11.80;56.20;;;;;;5088996;28;20020;-79
2021/10/11 12:08:42;;;;;;;31.70;17.60;;;11.80;55.90;;;;;;5077673;28;20024;-78
2021/10/11 12:11:08;;;;;;;39.40;18.95;;;11.80;54.50;;;;;;5074892;28;20497;-78
2021/10/11 12:13:37;;;;;;;37.38;20.98;;;11.90;54.00;;;;;;5075926;28;20027;-78
2021/10/11 12:16:11;;;;;;;43.47;22.17;;;11.80;54.90;;;;;;5075860;28;20486;-78
2021/10/11 12:18:51;;;;;;;45.85;22.30;;;11.90;55.60;;;;;;5084779;28;20028;-78
2021/10/11 12:21:30;;;;;;;39.85;22.30;;;12.00;55.70;;;;;;5111896;28;20023;-78
2021/10/11 12:23:58;;;;;;;38.47;19.23;;;12.00;55.40;;;;;;5090534;28;20378;-78
2021/10/11 12:26:26;;;;;;;33.53;17.13;;;11.90;54.90;;;;;;5110036;28;20016;-78
2021/10/11 12:28:54;;;;;;;32.47;18.98;;;11.80;55.20;;;;;;5095939;28;20028;-78
2021/10/11 12:31:28;;;;;;;42.17;25.83;;;11.80;55.40;;;;;;5095987;28;20024;-78
2021/10/11 12:34:03;;;;;;;32.17;17.58;;;11.80;56.70;;;;;;5076517;28;20035;-78
2021/10/11 12:36:29;;;;;;;34.53;18.80;;;11.80;55.80;;;;;;5074316;28;20206;-78